sensor_id;sensor_type;location;lat;lon;timestamp;P1;durP1;ratioP1;P2;durP2;ratioP2
12228;SDS011;6177;52.402;9.800;2022-12-29T00:02:16;1.10;;;1.10;;
12228;SDS011;6177;52.402;9.800;2022-12-29T00:04:42;1.07;;;1.07;;
12228;SDS011;6177;52.402;9.800;2022-12-29T00:07:10;1.03;;;1.03;;
12228;SDS011;6177;52.402;9.800;2022-12-29T00:09:36;1.07;;;1.07;;
12228;SDS011;6177;52.402;9.800;2022-12-29T00:12:03;0.90;;;0.90;;
12228;SDS011;6177;52.402;9.800;2022-12-29T00:14:29;1.60;;;1.30;;
12228;SDS011;6177;52.402;9.800;2022-12-29T00:17:14;1.10;;;1.00;;
12228;SDS011;6177;52.402;9.800;2022-12-29T00:19:40;1.17;;;1.00;;
12228;SDS011;6177;52.402;9.800;2022-12-29T00:22:25;1.27;;;0.80;;
12228;SDS011;6177;52.402;9.800;2022-12-29T00:25:10;1.50;;;1.00;;
12228;SDS011;6177;52.402;9.800;2022-12-29T00:28:12;0.80;;;0.80;;
12228;SDS011;6177;52.402;9.800;2022-12-29T00:31:00;0.90;;;0.90;;
12228;SDS011;6177;52.402;9.800;2022-12-29T00:33:44;0.77;;;0.77;;
12228;SDS011;6177;52.402;9.800;2022-12-29T00:36:38;0.77;;;0.77;;
12228;SDS011;6177;52.402;9.800;2022-12-29T00:39:07;0.97;;;0.97;;
12228;SDS011;6177;52.402;9.800;2022-12-29T00:41:55;0.73;;;0.73;;
12228;SDS011;6177;52.402;9.800;2022-12-29T00:44:40;0.80;;;0.80;;
12228;SDS011;6177;52.402;9.800;2022-12-29T00:47:08;0.80;;;0.80;;
12228;SDS011;6177;52.402;9.800;2022-12-29T00:49:34;1.23;;;0.70;;
12228;SDS011;6177;52.402;9.800;2022-12-29T00:52:04;0.77;;;0.77;;
12228;SDS011;6177;52.402;9.800;2022-12-29T00:54:35;0.90;;;0.90;;
12228;SDS011;6177;52.402;9.800;2022-12-29T00:57:03;0.93;;;0.80;;
12228;SDS011;6177;52.402;9.800;2022-12-29T00:59:30;1.00;;;1.00;;
12228;SDS011;6177;52.402;9.800;2022-12-29T01:01:57;0.87;;;0.87;;
12228;SDS011;6177;52.402;9.800;2022-12-29T01:04:24;0.73;;;0.73;;
12228;SDS011;6177;52.402;9.800;2022-12-29T01:06:51;0.60;;;0.60;;
12228;SDS011;6177;52.402;9.800;2022-12-29T01:09:19;0.90;;;0.90;;
12228;SDS011;6177;52.402;9.800;2022-12-29T01:12:05;0.70;;;0.70;;
12228;SDS011;6177;52.402;9.800;2022-12-29T01:14:33;0.87;;;0.87;;
12228;SDS011;6177;52.402;9.800;2022-12-29T01:16:59;0.70;;;0.70;;
12228;SDS011;6177;52.402;9.800;2022-12-29T01:19:25;1.00;;;0.90;;
12228;SDS011;6177;52.402;9.800;2022-12-29T01:21:52;0.60;;;0.60;;
12228;SDS011;6177;52.402;9.800;2022-12-29T01:24:18;1.17;;;0.90;;
12228;SDS011;6177;52.402;9.800;2022-12-29T01:26:45;0.80;;;0.80;;
12228;SDS011;6177;52.402;9.800;2022-12-29T01:29:13;0.70;;;0.70;;
12228;SDS011;6177;52.402;9.800;2022-12-29T01:31:39;0.67;;;0.60;;
12228;SDS011;6177;52.402;9.800;2022-12-29T01:34:05;0.87;;;0.87;;
12228;SDS011;6177;52.402;9.800;2022-12-29T01:36:31;0.87;;;0.60;;
12228;SDS011;6177;52.402;9.800;2022-12-29T01:38:57;0.70;;;0.70;;
12228;SDS011;6177;52.402;9.800;2022-12-29T01:41:23;1.07;;;0.60;;
12228;SDS011;6177;52.402;9.800;2022-12-29T01:43:54;1.07;;;1.07;;
12228;SDS011;6177;52.402;9.800;2022-12-29T01:51:48;0.80;;;0.80;;
12228;SDS011;6177;52.402;9.800;2022-12-29T01:54:21;0.70;;;0.70;;
12228;SDS011;6177;52.402;9.800;2022-12-29T01:56:48;0.53;;;0.53;;
12228;SDS011;6177;52.402;9.800;2022-12-29T01:59:18;0.87;;;0.87;;
12228;SDS011;6177;52.402;9.800;2022-12-29T02:01:46;0.70;;;0.70;;
12228;SDS011;6177;52.402;9.800;2022-12-29T02:04:13;0.70;;;0.70;;
12228;SDS011;6177;52.402;9.800;2022-12-29T02:09:38;0.60;;;0.60;;
12228;SDS011;6177;52.402;9.800;2022-12-29T02:12:04;0.80;;;0.80;;
12228;SDS011;6177;52.402;9.800;2022-12-29T02:14:30;0.80;;;0.70;;
12228;SDS011;6177;52.402;9.800;2022-12-29T02:22:45;0.70;;;0.70;;
12228;SDS011;6177;52.402;9.800;2022-12-29T02:33:58;0.50;;;0.50;;
12228;SDS011;6177;52.402;9.800;2022-12-29T02:47:14;0.80;;;0.80;;
12228;SDS011;6177;52.402;9.800;2022-12-29T02:49:45;0.70;;;0.70;;
12228;SDS011;6177;52.402;9.800;2022-12-29T02:52:23;0.70;;;0.70;;
12228;SDS011;6177;52.402;9.800;2022-12-29T02:54:54;0.73;;;0.60;;
12228;SDS011;6177;52.402;9.800;2022-12-29T02:59:47;0.50;;;0.50;;
12228;SDS011;6177;52.402;9.800;2022-12-29T03:02:34;0.50;;;0.50;;
12228;SDS011;6177;52.402;9.800;2022-12-29T03:11:20;0.60;;;0.60;;
12228;SDS011;6177;52.402;9.800;2022-12-29T03:14:16;0.50;;;0.50;;
12228;SDS011;6177;52.402;9.800;2022-12-29T03:17:18;0.50;;;0.50;;
12228;SDS011;6177;52.402;9.800;2022-12-29T03:20:05;0.50;;;0.50;;
12228;SDS011;6177;52.402;9.800;2022-12-29T03:22:36;0.73;;;0.67;;
12228;SDS011;6177;52.402;9.800;2022-12-29T03:25:21;0.80;;;0.80;;
12228;SDS011;6177;52.402;9.800;2022-12-29T03:32:01;1.60;;;0.60;;
12228;SDS011;6177;52.402;9.800;2022-12-29T03:34:28;0.57;;;0.57;;
12228;SDS011;6177;52.402;9.800;2022-12-29T03:37:18;0.60;;;0.50;;
12228;SDS011;6177;52.402;9.800;2022-12-29T03:39:44;0.50;;;0.50;;
12228;SDS011;6177;52.402;9.800;2022-12-29T03:42:14;0.70;;;0.70;;
12228;SDS011;6177;52.402;9.800;2022-12-29T03:44:45;0.50;;;0.50;;
12228;SDS011;6177;52.402;9.800;2022-12-29T03:47:13;0.50;;;0.40;;
12228;SDS011;6177;52.402;9.800;2022-12-29T03:49:41;0.33;;;0.33;;
12228;SDS011;6177;52.402;9.800;2022-12-29T03:52:07;0.57;;;0.57;;
12228;SDS011;6177;52.402;9.800;2022-12-29T03:54:40;0.40;;;0.40;;
12228;SDS011;6177;52.402;9.800;2022-12-29T03:57:08;0.73;;;0.30;;
12228;SDS011;6177;52.402;9.800;2022-12-29T03:59:47;0.40;;;0.40;;
12228;SDS011;6177;52.402;9.800;2022-12-29T04:02:13;0.60;;;0.60;;
12228;SDS011;6177;52.402;9.800;2022-12-29T04:04:40;0.43;;;0.43;;
12228;SDS011;6177;52.402;9.800;2022-12-29T04:07:06;0.77;;;0.47;;
12228;SDS011;6177;52.402;9.800;2022-12-29T04:09:32;0.33;;;0.33;;
12228;SDS011;6177;52.402;9.800;2022-12-29T04:12:16;0.50;;;0.50;;
12228;SDS011;6177;52.402;9.800;2022-12-29T04:14:46;0.30;;;0.30;;
12228;SDS011;6177;52.402;9.800;2022-12-29T04:17:12;0.50;;;0.50;;
12228;SDS011;6177;52.402;9.800;2022-12-29T04:19:39;0.30;;;0.30;;
12228;SDS011;6177;52.402;9.800;2022-12-29T04:22:05;0.73;;;0.40;;
12228;SDS011;6177;52.402;9.800;2022-12-29T04:24:32;0.40;;;0.40;;
12228;SDS011;6177;52.402;9.800;2022-12-29T04:26:58;1.40;;;0.50;;
12228;SDS011;6177;52.402;9.800;2022-12-29T04:29:47;1.03;;;0.53;;
12228;SDS011;6177;52.402;9.800;2022-12-29T04:32:32;0.20;;;0.20;;
12228;SDS011;6177;52.402;9.800;2022-12-29T04:34:58;0.33;;;0.33;;
12228;SDS011;6177;52.402;9.800;2022-12-29T04:37:24;0.30;;;0.30;;
12228;SDS011;6177;52.402;9.800;2022-12-29T04:39:49;0.57;;;0.40;;
12228;SDS011;6177;52.402;9.800;2022-12-29T04:42:16;0.20;;;0.20;;
12228;SDS011;6177;52.402;9.800;2022-12-29T04:44:43;0.37;;;0.37;;
12228;SDS011;6177;52.402;9.800;2022-12-29T04:47:12;0.27;;;0.27;;
12228;SDS011;6177;52.402;9.800;2022-12-29T04:50:01;0.30;;;0.30;;
12228;SDS011;6177;52.402;9.800;2022-12-29T04:52:55;0.20;;;0.20;;
12228;SDS011;6177;52.402;9.800;2022-12-29T04:55:25;0.60;;;0.37;;
12228;SDS011;6177;52.402;9.800;2022-12-29T04:57:54;0.20;;;0.20;;
12228;SDS011;6177;52.402;9.800;2022-12-29T05:00:25;0.40;;;0.40;;
12228;SDS011;6177;52.402;9.800;2022-12-29T05:02:51;0.30;;;0.30;;
12228;SDS011;6177;52.402;9.800;2022-12-29T05:05:17;1.27;;;0.40;;
12228;SDS011;6177;52.402;9.800;2022-12-29T05:07:47;0.40;;;0.40;;
12228;SDS011;6177;52.402;9.800;2022-12-29T05:10:12;0.40;;;0.30;;
12228;SDS011;6177;52.402;9.800;2022-12-29T05:12:39;0.30;;;0.20;;
12228;SDS011;6177;52.402;9.800;2022-12-29T05:15:06;0.30;;;0.30;;
12228;SDS011;6177;52.402;9.800;2022-12-29T05:17:33;0.47;;;0.40;;
12228;SDS011;6177;52.402;9.800;2022-12-29T05:19:59;0.30;;;0.30;;
12228;SDS011;6177;52.402;9.800;2022-12-29T05:22:25;0.37;;;0.30;;
12228;SDS011;6177;52.402;9.800;2022-12-29T05:24:53;0.50;;;0.40;;
12228;SDS011;6177;52.402;9.800;2022-12-29T05:27:19;0.30;;;0.30;;
12228;SDS011;6177;52.402;9.800;2022-12-29T05:29:57;0.30;;;0.30;;
12228;SDS011;6177;52.402;9.800;2022-12-29T05:32:24;0.40;;;0.40;;
12228;SDS011;6177;52.402;9.800;2022-12-29T05:34:50;0.60;;;0.30;;
12228;SDS011;6177;52.402;9.800;2022-12-29T05:37:17;1.23;;;0.30;;
12228;SDS011;6177;52.402;9.800;2022-12-29T05:39:43;0.43;;;0.30;;
12228;SDS011;6177;52.402;9.800;2022-12-29T05:42:15;0.83;;;0.40;;
12228;SDS011;6177;52.402;9.800;2022-12-29T05:45:29;1.23;;;0.37;;
12228;SDS011;6177;52.402;9.800;2022-12-29T05:48:43;0.30;;;0.30;;
12228;SDS011;6177;52.402;9.800;2022-12-29T05:52:09;0.50;;;0.20;;
12228;SDS011;6177;52.402;9.800;2022-12-29T05:54:50;0.30;;;0.30;;
12228;SDS011;6177;52.402;9.800;2022-12-29T05:57:33;0.57;;;0.40;;
12228;SDS011;6177;52.402;9.800;2022-12-29T06:00:19;0.70;;;0.20;;
12228;SDS011;6177;52.402;9.800;2022-12-29T06:02:46;0.40;;;0.40;;
12228;SDS011;6177;52.402;9.800;2022-12-29T06:05:12;0.30;;;0.30;;
12228;SDS011;6177;52.402;9.800;2022-12-29T06:07:39;0.50;;;0.33;;
12228;SDS011;6177;52.402;9.800;2022-12-29T06:10:07;0.40;;;0.40;;
12228;SDS011;6177;52.402;9.800;2022-12-29T06:12:51;0.30;;;0.30;;
12228;SDS011;6177;52.402;9.800;2022-12-29T06:15:18;0.43;;;0.30;;
12228;SDS011;6177;52.402;9.800;2022-12-29T06:17:45;0.70;;;0.40;;
12228;SDS011;6177;52.402;9.800;2022-12-29T06:20:11;0.50;;;0.50;;
12228;SDS011;6177;52.402;9.800;2022-12-29T06:22:37;0.70;;;0.40;;
12228;SDS011;6177;52.402;9.800;2022-12-29T06:25:04;0.50;;;0.30;;
12228;SDS011;6177;52.402;9.800;2022-12-29T06:27:31;0.33;;;0.27;;
12228;SDS011;6177;52.402;9.800;2022-12-29T06:29:57;0.40;;;0.40;;
12228;SDS011;6177;52.402;9.800;2022-12-29T06:32:23;0.20;;;0.20;;
12228;SDS011;6177;52.402;9.800;2022-12-29T06:34:52;0.43;;;0.43;;
12228;SDS011;6177;52.402;9.800;2022-12-29T06:37:18;0.30;;;0.30;;
12228;SDS011;6177;52.402;9.800;2022-12-29T06:39:44;0.70;;;0.40;;
12228;SDS011;6177;52.402;9.800;2022-12-29T06:42:12;0.30;;;0.30;;
12228;SDS011;6177;52.402;9.800;2022-12-29T06:45:10;0.30;;;0.30;;
12228;SDS011;6177;52.402;9.800;2022-12-29T06:47:36;0.20;;;0.20;;
12228;SDS011;6177;52.402;9.800;2022-12-29T06:50:02;0.20;;;0.20;;
12228;SDS011;6177;52.402;9.800;2022-12-29T06:52:29;0.40;;;0.40;;
12228;SDS011;6177;52.402;9.800;2022-12-29T06:54:55;0.43;;;0.20;;
12228;SDS011;6177;52.402;9.800;2022-12-29T06:57:21;0.73;;;0.60;;
12228;SDS011;6177;52.402;9.800;2022-12-29T06:59:47;0.30;;;0.30;;
12228;SDS011;6177;52.402;9.800;2022-12-29T07:02:13;1.03;;;0.37;;
12228;SDS011;6177;52.402;9.800;2022-12-29T07:04:44;0.53;;;0.47;;
12228;SDS011;6177;52.402;9.800;2022-12-29T07:07:10;0.30;;;0.30;;
12228;SDS011;6177;52.402;9.800;2022-12-29T07:09:36;0.47;;;0.47;;
12228;SDS011;6177;52.402;9.800;2022-12-29T07:12:02;0.60;;;0.60;;
12228;SDS011;6177;52.402;9.800;2022-12-29T07:14:28;0.30;;;0.20;;
12228;SDS011;6177;52.402;9.800;2022-12-29T07:16:55;0.37;;;0.30;;
12228;SDS011;6177;52.402;9.800;2022-12-29T07:19:21;0.30;;;0.30;;
12228;SDS011;6177;52.402;9.800;2022-12-29T07:21:47;0.40;;;0.40;;
12228;SDS011;6177;52.402;9.800;2022-12-29T07:24:13;3.53;;;0.90;;
12228;SDS011;6177;52.402;9.800;2022-12-29T07:26:38;5.00;;;1.07;;
12228;SDS011;6177;52.402;9.800;2022-12-29T07:29:04;1.43;;;0.33;;
12228;SDS011;6177;52.402;9.800;2022-12-29T07:31:31;1.50;;;0.30;;
12228;SDS011;6177;52.402;9.800;2022-12-29T07:33:56;3.00;;;0.47;;
12228;SDS011;6177;52.402;9.800;2022-12-29T07:36:22;1.23;;;0.50;;
12228;SDS011;6177;52.402;9.800;2022-12-29T07:38:48;1.50;;;0.40;;
12228;SDS011;6177;52.402;9.800;2022-12-29T07:41:14;0.63;;;0.20;;
12228;SDS011;6177;52.402;9.800;2022-12-29T07:43:40;1.60;;;0.30;;
12228;SDS011;6177;52.402;9.800;2022-12-29T07:46:24;0.83;;;0.30;;
12228;SDS011;6177;52.402;9.800;2022-12-29T07:48:50;1.07;;;0.27;;
12228;SDS011;6177;52.402;9.800;2022-12-29T07:51:16;0.17;;;0.17;;
12228;SDS011;6177;52.402;9.800;2022-12-29T07:53:42;1.07;;;0.30;;
12228;SDS011;6177;52.402;9.800;2022-12-29T07:56:11;0.27;;;0.20;;
12228;SDS011;6177;52.402;9.800;2022-12-29T07:58:36;0.93;;;0.30;;
12228;SDS011;6177;52.402;9.800;2022-12-29T08:01:02;0.30;;;0.30;;
12228;SDS011;6177;52.402;9.800;2022-12-29T08:03:29;0.30;;;0.30;;
12228;SDS011;6177;52.402;9.800;2022-12-29T08:05:56;0.53;;;0.50;;
12228;SDS011;6177;52.402;9.800;2022-12-29T08:08:22;0.40;;;0.40;;
12228;SDS011;6177;52.402;9.800;2022-12-29T08:10:48;0.30;;;0.30;;
12228;SDS011;6177;52.402;9.800;2022-12-29T08:13:14;0.30;;;0.30;;
12228;SDS011;6177;52.402;9.800;2022-12-29T08:15:40;0.37;;;0.37;;
12228;SDS011;6177;52.402;9.800;2022-12-29T08:18:06;1.23;;;0.30;;
12228;SDS011;6177;52.402;9.800;2022-12-29T08:20:32;0.40;;;0.40;;
12228;SDS011;6177;52.402;9.800;2022-12-29T08:22:57;0.67;;;0.50;;
12228;SDS011;6177;52.402;9.800;2022-12-29T08:25:24;0.30;;;0.30;;
12228;SDS011;6177;52.402;9.800;2022-12-29T08:27:50;0.40;;;0.40;;
12228;SDS011;6177;52.402;9.800;2022-12-29T08:30:15;0.83;;;0.47;;
12228;SDS011;6177;52.402;9.800;2022-12-29T08:32:43;1.93;;;0.53;;
12228;SDS011;6177;52.402;9.800;2022-12-29T08:35:09;2.10;;;0.67;;
12228;SDS011;6177;52.402;9.800;2022-12-29T08:37:34;0.77;;;0.63;;
12228;SDS011;6177;52.402;9.800;2022-12-29T08:40:01;0.60;;;0.53;;
12228;SDS011;6177;52.402;9.800;2022-12-29T08:42:29;1.30;;;0.50;;
12228;SDS011;6177;52.402;9.800;2022-12-29T08:44:57;0.67;;;0.67;;
12228;SDS011;6177;52.402;9.800;2022-12-29T08:47:25;0.80;;;0.50;;
12228;SDS011;6177;52.402;9.800;2022-12-29T08:49:51;1.83;;;0.73;;
12228;SDS011;6177;52.402;9.800;2022-12-29T08:52:17;1.03;;;0.57;;
12228;SDS011;6177;52.402;9.800;2022-12-29T08:54:44;1.43;;;0.60;;
12228;SDS011;6177;52.402;9.800;2022-12-29T08:57:10;3.73;;;1.07;;
12228;SDS011;6177;52.402;9.800;2022-12-29T08:59:45;1.27;;;0.40;;
12228;SDS011;6177;52.402;9.800;2022-12-29T09:02:14;2.07;;;0.70;;
12228;SDS011;6177;52.402;9.800;2022-12-29T09:05:08;0.93;;;0.60;;
12228;SDS011;6177;52.402;9.800;2022-12-29T09:07:35;1.07;;;0.70;;
12228;SDS011;6177;52.402;9.800;2022-12-29T09:10:03;1.73;;;0.80;;
12228;SDS011;6177;52.402;9.800;2022-12-29T09:12:30;0.80;;;0.67;;
12228;SDS011;6177;52.402;9.800;2022-12-29T09:15:00;0.93;;;0.60;;
12228;SDS011;6177;52.402;9.800;2022-12-29T09:17:29;1.43;;;0.60;;
12228;SDS011;6177;52.402;9.800;2022-12-29T09:20:13;3.07;;;0.60;;
12228;SDS011;6177;52.402;9.800;2022-12-29T09:22:47;1.50;;;0.60;;
12228;SDS011;6177;52.402;9.800;2022-12-29T09:25:27;1.60;;;0.80;;
12228;SDS011;6177;52.402;9.800;2022-12-29T09:27:55;0.87;;;0.67;;
12228;SDS011;6177;52.402;9.800;2022-12-29T09:30:21;1.47;;;0.97;;
12228;SDS011;6177;52.402;9.800;2022-12-29T09:32:48;2.03;;;0.63;;
12228;SDS011;6177;52.402;9.800;2022-12-29T09:35:14;1.77;;;0.70;;
12228;SDS011;6177;52.402;9.800;2022-12-29T09:37:42;3.07;;;1.10;;
12228;SDS011;6177;52.402;9.800;2022-12-29T09:46:06;1.40;;;1.00;;
12228;SDS011;6177;52.402;9.800;2022-12-29T09:48:38;3.40;;;1.20;;
12228;SDS011;6177;52.402;9.800;2022-12-29T09:51:10;1.77;;;0.90;;
12228;SDS011;6177;52.402;9.800;2022-12-29T09:53:46;1.77;;;0.90;;
12228;SDS011;6177;52.402;9.800;2022-12-29T09:56:25;1.80;;;0.60;;
12228;SDS011;6177;52.402;9.800;2022-12-29T09:59:10;2.57;;;1.47;;
12228;SDS011;6177;52.402;9.800;2022-12-29T10:01:44;1.43;;;1.07;;
12228;SDS011;6177;52.402;9.800;2022-12-29T10:04:12;0.70;;;0.70;;
12228;SDS011;6177;52.402;9.800;2022-12-29T10:06:57;0.73;;;0.73;;
12228;SDS011;6177;52.402;9.800;2022-12-29T10:09:52;2.03;;;1.10;;
12228;SDS011;6177;52.402;9.800;2022-12-29T10:18:24;1.57;;;0.87;;
12228;SDS011;6177;52.402;9.800;2022-12-29T10:20:57;0.90;;;0.90;;
12228;SDS011;6177;52.402;9.800;2022-12-29T10:23:45;0.90;;;0.90;;
12228;SDS011;6177;52.402;9.800;2022-12-29T10:26:23;1.07;;;0.73;;
12228;SDS011;6177;52.402;9.800;2022-12-29T10:29:26;1.20;;;0.70;;
12228;SDS011;6177;52.402;9.800;2022-12-29T10:31:47;0.80;;;0.80;;
12228;SDS011;6177;52.402;9.800;2022-12-29T10:34:25;0.77;;;0.77;;
12228;SDS011;6177;52.402;9.800;2022-12-29T10:46:30;1.37;;;0.83;;
12228;SDS011;6177;52.402;9.800;2022-12-29T10:49:14;0.70;;;0.70;;
12228;SDS011;6177;52.402;9.800;2022-12-29T10:52:02;0.70;;;0.70;;
12228;SDS011;6177;52.402;9.800;2022-12-29T10:55:19;0.80;;;0.80;;
12228;SDS011;6177;52.402;9.800;2022-12-29T10:57:36;0.63;;;0.63;;
12228;SDS011;6177;52.402;9.800;2022-12-29T11:07:58;2.27;;;1.30;;
12228;SDS011;6177;52.402;9.800;2022-12-29T11:15:26;1.87;;;1.10;;
12228;SDS011;6177;52.402;9.800;2022-12-29T11:17:53;1.23;;;1.00;;
12228;SDS011;6177;52.402;9.800;2022-12-29T11:20:31;0.93;;;0.70;;
12228;SDS011;6177;52.402;9.800;2022-12-29T11:22:58;0.80;;;0.80;;
12228;SDS011;6177;52.402;9.800;2022-12-29T11:25:25;1.10;;;0.90;;
12228;SDS011;6177;52.402;9.800;2022-12-29T11:28:02;2.63;;;0.83;;
12228;SDS011;6177;52.402;9.800;2022-12-29T11:30:58;2.47;;;1.10;;
12228;SDS011;6177;52.402;9.800;2022-12-29T11:33:27;1.93;;;1.03;;
12228;SDS011;6177;52.402;9.800;2022-12-29T11:35:57;1.10;;;0.90;;
12228;SDS011;6177;52.402;9.800;2022-12-29T11:38:25;3.43;;;0.87;;
12228;SDS011;6177;52.402;9.800;2022-12-29T11:40:59;2.50;;;1.03;;
12228;SDS011;6177;52.402;9.800;2022-12-29T11:43:33;1.77;;;1.03;;
12228;SDS011;6177;52.402;9.800;2022-12-29T11:46:02;0.80;;;0.80;;
12228;SDS011;6177;52.402;9.800;2022-12-29T11:48:31;1.90;;;0.80;;
12228;SDS011;6177;52.402;9.800;2022-12-29T11:51:03;1.20;;;0.70;;
12228;SDS011;6177;52.402;9.800;2022-12-29T11:56:37;0.80;;;0.80;;
12228;SDS011;6177;52.402;9.800;2022-12-29T12:04:45;2.40;;;1.27;;
12228;SDS011;6177;52.402;9.800;2022-12-29T12:07:24;2.53;;;1.10;;
12228;SDS011;6177;52.402;9.800;2022-12-29T12:13:22;3.40;;;0.77;;
12228;SDS011;6177;52.402;9.800;2022-12-29T12:16:17;1.77;;;0.90;;
12228;SDS011;6177;52.402;9.800;2022-12-29T12:19:33;1.90;;;0.70;;
12228;SDS011;6177;52.402;9.800;2022-12-29T12:22:31;0.70;;;0.70;;
12228;SDS011;6177;52.402;9.800;2022-12-29T12:31:02;3.50;;;1.17;;
12228;SDS011;6177;52.402;9.800;2022-12-29T12:33:44;2.10;;;0.80;;
12228;SDS011;6177;52.402;9.800;2022-12-29T13:00:25;1.17;;;0.77;;
12228;SDS011;6177;52.402;9.800;2022-12-29T13:11:54;0.80;;;0.70;;
12228;SDS011;6177;52.402;9.800;2022-12-29T13:23:59;0.90;;;0.90;;
12228;SDS011;6177;52.402;9.800;2022-12-29T13:26:02;3.27;;;1.00;;
12228;SDS011;6177;52.402;9.800;2022-12-29T13:28:47;3.00;;;0.90;;
12228;SDS011;6177;52.402;9.800;2022-12-29T13:31:37;2.97;;;0.87;;
12228;SDS011;6177;52.402;9.800;2022-12-29T13:34:21;2.30;;;0.87;;
12228;SDS011;6177;52.402;9.800;2022-12-29T13:36:54;1.70;;;0.60;;
12228;SDS011;6177;52.402;9.800;2022-12-29T13:39:34;4.17;;;1.17;;
12228;SDS011;6177;52.402;9.800;2022-12-29T13:42:03;1.40;;;0.80;;
12228;SDS011;6177;52.402;9.800;2022-12-29T13:50:20;2.77;;;0.97;;
12228;SDS011;6177;52.402;9.800;2022-12-29T13:52:58;2.50;;;1.13;;
12228;SDS011;6177;52.402;9.800;2022-12-29T13:55:49;0.93;;;0.77;;
12228;SDS011;6177;52.402;9.800;2022-12-29T14:03:56;2.17;;;0.93;;
12228;SDS011;6177;52.402;9.800;2022-12-29T14:06:31;1.13;;;0.93;;
12228;SDS011;6177;52.402;9.800;2022-12-29T14:09:03;1.93;;;1.00;;
12228;SDS011;6177;52.402;9.800;2022-12-29T14:11:32;1.30;;;1.00;;
12228;SDS011;6177;52.402;9.800;2022-12-29T14:14:12;2.00;;;1.10;;
12228;SDS011;6177;52.402;9.800;2022-12-29T14:16:45;1.30;;;0.80;;
12228;SDS011;6177;52.402;9.800;2022-12-29T14:19:19;1.07;;;1.07;;
12228;SDS011;6177;52.402;9.800;2022-12-29T14:21:52;2.60;;;1.00;;
12228;SDS011;6177;52.402;9.800;2022-12-29T14:32:35;1.40;;;0.87;;
12228;SDS011;6177;52.402;9.800;2022-12-29T14:34:53;2.00;;;0.87;;
12228;SDS011;6177;52.402;9.800;2022-12-29T14:37:32;3.27;;;1.07;;
12228;SDS011;6177;52.402;9.800;2022-12-29T14:42:47;1.80;;;0.80;;
12228;SDS011;6177;52.402;9.800;2022-12-29T14:47:45;3.13;;;1.00;;
12228;SDS011;6177;52.402;9.800;2022-12-29T14:58:19;1.40;;;1.30;;
12228;SDS011;6177;52.402;9.800;2022-12-29T15:00:57;2.10;;;1.07;;
12228;SDS011;6177;52.402;9.800;2022-12-29T15:05:54;2.03;;;1.17;;
12228;SDS011;6177;52.402;9.800;2022-12-29T15:08:26;2.43;;;1.07;;
12228;SDS011;6177;52.402;9.800;2022-12-29T15:11:13;2.10;;;1.20;;
12228;SDS011;6177;52.402;9.800;2022-12-29T15:13:42;2.53;;;1.07;;
12228;SDS011;6177;52.402;9.800;2022-12-29T15:19:04;1.73;;;1.20;;
12228;SDS011;6177;52.402;9.800;2022-12-29T15:21:47;3.10;;;1.30;;
12228;SDS011;6177;52.402;9.800;2022-12-29T15:24:13;4.90;;;1.40;;
12228;SDS011;6177;52.402;9.800;2022-12-29T15:26:45;1.83;;;1.30;;
12228;SDS011;6177;52.402;9.800;2022-12-29T15:32:10;1.33;;;1.23;;
12228;SDS011;6177;52.402;9.800;2022-12-29T15:34:40;2.17;;;0.97;;
12228;SDS011;6177;52.402;9.800;2022-12-29T15:37:07;1.57;;;0.80;;
12228;SDS011;6177;52.402;9.800;2022-12-29T15:39:34;2.33;;;1.17;;
12228;SDS011;6177;52.402;9.800;2022-12-29T15:42:16;2.87;;;1.73;;
12228;SDS011;6177;52.402;9.800;2022-12-29T15:44:45;2.07;;;0.90;;
12228;SDS011;6177;52.402;9.800;2022-12-29T15:47:12;1.77;;;1.20;;
12228;SDS011;6177;52.402;9.800;2022-12-29T15:49:48;2.63;;;1.33;;
12228;SDS011;6177;52.402;9.800;2022-12-29T15:52:17;2.83;;;1.10;;
12228;SDS011;6177;52.402;9.800;2022-12-29T15:54:48;3.10;;;1.27;;
12228;SDS011;6177;52.402;9.800;2022-12-29T15:57:23;1.83;;;1.17;;
12228;SDS011;6177;52.402;9.800;2022-12-29T15:59:50;3.50;;;1.50;;
12228;SDS011;6177;52.402;9.800;2022-12-29T16:02:19;2.60;;;1.53;;
12228;SDS011;6177;52.402;9.800;2022-12-29T16:04:47;3.10;;;1.67;;
12228;SDS011;6177;52.402;9.800;2022-12-29T16:09:59;3.93;;;1.40;;
12228;SDS011;6177;52.402;9.800;2022-12-29T16:12:35;1.23;;;1.00;;
12228;SDS011;6177;52.402;9.800;2022-12-29T16:15:04;3.23;;;1.47;;
12228;SDS011;6177;52.402;9.800;2022-12-29T16:17:41;3.63;;;1.70;;
12228;SDS011;6177;52.402;9.800;2022-12-29T16:20:17;5.13;;;1.60;;
12228;SDS011;6177;52.402;9.800;2022-12-29T16:22:50;3.57;;;1.57;;
12228;SDS011;6177;52.402;9.800;2022-12-29T16:25:33;2.40;;;1.40;;
12228;SDS011;6177;52.402;9.800;2022-12-29T16:28:02;5.33;;;1.83;;
12228;SDS011;6177;52.402;9.800;2022-12-29T16:30:43;2.70;;;1.40;;
12228;SDS011;6177;52.402;9.800;2022-12-29T16:33:28;4.00;;;1.60;;
12228;SDS011;6177;52.402;9.800;2022-12-29T16:36:51;3.90;;;1.83;;
12228;SDS011;6177;52.402;9.800;2022-12-29T16:41:56;5.47;;;1.47;;
12228;SDS011;6177;52.402;9.800;2022-12-29T16:44:26;1.83;;;1.60;;
12228;SDS011;6177;52.402;9.800;2022-12-29T16:49:35;3.10;;;2.07;;
12228;SDS011;6177;52.402;9.800;2022-12-29T16:52:14;4.20;;;1.43;;
12228;SDS011;6177;52.402;9.800;2022-12-29T16:54:53;3.80;;;1.87;;
12228;SDS011;6177;52.402;9.800;2022-12-29T16:57:25;4.93;;;2.00;;
12228;SDS011;6177;52.402;9.800;2022-12-29T17:00:00;3.53;;;1.67;;
12228;SDS011;6177;52.402;9.800;2022-12-29T17:02:31;4.00;;;1.30;;
12228;SDS011;6177;52.402;9.800;2022-12-29T17:04:59;2.10;;;1.63;;
12228;SDS011;6177;52.402;9.800;2022-12-29T17:07:26;4.20;;;1.83;;
12228;SDS011;6177;52.402;9.800;2022-12-29T17:09:53;3.90;;;1.90;;
12228;SDS011;6177;52.402;9.800;2022-12-29T17:12:23;2.93;;;1.37;;
12228;SDS011;6177;52.402;9.800;2022-12-29T17:14:58;2.70;;;1.37;;
12228;SDS011;6177;52.402;9.800;2022-12-29T17:19:54;2.47;;;1.30;;
12228;SDS011;6177;52.402;9.800;2022-12-29T17:22:24;4.23;;;1.20;;
12228;SDS011;6177;52.402;9.800;2022-12-29T17:24:52;3.87;;;1.73;;
12228;SDS011;6177;52.402;9.800;2022-12-29T17:27:21;4.53;;;1.80;;
12228;SDS011;6177;52.402;9.800;2022-12-29T17:29:50;2.50;;;1.13;;
12228;SDS011;6177;52.402;9.800;2022-12-29T17:32:18;2.07;;;1.00;;
12228;SDS011;6177;52.402;9.800;2022-12-29T17:34:44;2.27;;;1.53;;
12228;SDS011;6177;52.402;9.800;2022-12-29T17:39:48;2.37;;;1.20;;
12228;SDS011;6177;52.402;9.800;2022-12-29T17:42:14;4.60;;;1.30;;
12228;SDS011;6177;52.402;9.800;2022-12-29T17:44:40;1.63;;;1.13;;
12228;SDS011;6177;52.402;9.800;2022-12-29T17:47:09;2.20;;;1.10;;
12228;SDS011;6177;52.402;9.800;2022-12-29T17:49:36;1.90;;;0.83;;
12228;SDS011;6177;52.402;9.800;2022-12-29T17:52:02;3.07;;;1.10;;
12228;SDS011;6177;52.402;9.800;2022-12-29T17:54:29;1.90;;;1.00;;
12228;SDS011;6177;52.402;9.800;2022-12-29T17:56:55;2.43;;;1.50;;
12228;SDS011;6177;52.402;9.800;2022-12-29T17:59:22;1.93;;;1.00;;
12228;SDS011;6177;52.402;9.800;2022-12-29T18:01:48;2.60;;;1.00;;
12228;SDS011;6177;52.402;9.800;2022-12-29T18:04:16;3.13;;;1.20;;
12228;SDS011;6177;52.402;9.800;2022-12-29T18:06:44;3.70;;;1.53;;
12228;SDS011;6177;52.402;9.800;2022-12-29T18:09:11;2.90;;;1.23;;
12228;SDS011;6177;52.402;9.800;2022-12-29T18:11:39;3.33;;;1.30;;
12228;SDS011;6177;52.402;9.800;2022-12-29T18:14:13;2.13;;;1.43;;
12228;SDS011;6177;52.402;9.800;2022-12-29T18:16:41;2.90;;;1.17;;
12228;SDS011;6177;52.402;9.800;2022-12-29T18:19:07;4.50;;;1.53;;
12228;SDS011;6177;52.402;9.800;2022-12-29T18:21:33;1.77;;;0.90;;
12228;SDS011;6177;52.402;9.800;2022-12-29T18:24:00;1.97;;;0.80;;
12228;SDS011;6177;52.402;9.800;2022-12-29T18:26:27;3.50;;;1.17;;
12228;SDS011;6177;52.402;9.800;2022-12-29T18:28:56;2.70;;;1.10;;
12228;SDS011;6177;52.402;9.800;2022-12-29T18:33:53;1.67;;;1.02;;
12228;SDS011;6177;52.402;9.800;2022-12-29T18:36:28;0.70;;;0.67;;
12228;SDS011;6177;52.402;9.800;2022-12-29T18:38:58;0.97;;;0.60;;
12228;SDS011;6177;52.402;9.800;2022-12-29T18:41:25;1.97;;;1.00;;
12228;SDS011;6177;52.402;9.800;2022-12-29T18:43:55;1.60;;;0.77;;
12228;SDS011;6177;52.402;9.800;2022-12-29T18:46:22;2.87;;;0.90;;
12228;SDS011;6177;52.402;9.800;2022-12-29T18:48:49;1.67;;;0.83;;